sensor_id;sensor_type;location;lat;lon;timestamp;P1;durP1;ratioP1;P2;durP2;ratioP2
10711;SDS011;5407;51.234;6.804;2023-03-19T00:01:47;3.05;;;2.15;;
10711;SDS011;5407;51.234;6.804;2023-03-19T00:04:14;2.75;;;2.28;;
10711;SDS011;5407;51.234;6.804;2023-03-19T00:06:41;2.53;;;2.30;;
10711;SDS011;5407;51.234;6.804;2023-03-19T00:09:08;3.00;;;2.38;;
10711;SDS011;5407;51.234;6.804;2023-03-19T00:11:38;2.30;;;2.10;;
10711;SDS011;5407;51.234;6.804;2023-03-19T00:14:05;2.15;;;1.95;;
10711;SDS011;5407;51.234;6.804;2023-03-19T00:16:33;2.05;;;1.90;;
10711;SDS011;5407;51.234;6.804;2023-03-19T00:19:00;2.38;;;2.17;;
10711;SDS011;5407;51.234;6.804;2023-03-19T00:21:28;2.30;;;2.10;;
10711;SDS011;5407;51.234;6.804;2023-03-19T00:23:55;2.78;;;2.03;;
10711;SDS011;5407;51.234;6.804;2023-03-19T00:26:25;2.13;;;1.92;;
10711;SDS011;5407;51.234;6.804;2023-03-19T00:28:52;2.40;;;2.20;;
10711;SDS011;5407;51.234;6.804;2023-03-19T00:31:19;2.30;;;2.10;;
10711;SDS011;5407;51.234;6.804;2023-03-19T00:33:47;2.00;;;1.80;;
10711;SDS011;5407;51.234;6.804;2023-03-19T00:36:14;2.50;;;2.10;;
10711;SDS011;5407;51.234;6.804;2023-03-19T00:38:42;2.10;;;2.00;;
10711;SDS011;5407;51.234;6.804;2023-03-19T00:41:09;2.47;;;2.10;;
10711;SDS011;5407;51.234;6.804;2023-03-19T00:43:37;1.95;;;1.85;;
10711;SDS011;5407;51.234;6.804;2023-03-19T00:46:04;2.50;;;2.10;;
10711;SDS011;5407;51.234;6.804;2023-03-19T00:48:32;2.00;;;1.80;;
10711;SDS011;5407;51.234;6.804;2023-03-19T00:51:02;3.10;;;1.92;;
10711;SDS011;5407;51.234;6.804;2023-03-19T00:53:30;2.17;;;1.92;;
10711;SDS011;5407;51.234;6.804;2023-03-19T00:55:57;2.10;;;1.90;;
10711;SDS011;5407;51.234;6.804;2023-03-19T00:58:24;3.35;;;1.90;;
10711;SDS011;5407;51.234;6.804;2023-03-19T01:00:51;2.83;;;2.20;;
10711;SDS011;5407;51.234;6.804;2023-03-19T01:03:18;2.28;;;2.05;;
10711;SDS011;5407;51.234;6.804;2023-03-19T01:05:46;2.55;;;2.03;;
10711;SDS011;5407;51.234;6.804;2023-03-19T01:08:14;1.85;;;1.75;;
10711;SDS011;5407;51.234;6.804;2023-03-19T01:10:42;3.30;;;1.80;;
10711;SDS011;5407;51.234;6.804;2023-03-19T01:13:09;1.98;;;1.70;;
10711;SDS011;5407;51.234;6.804;2023-03-19T01:15:40;2.20;;;2.00;;
10711;SDS011;5407;51.234;6.804;2023-03-19T01:18:09;2.20;;;2.00;;
10711;SDS011;5407;51.234;6.804;2023-03-19T01:20:37;3.80;;;2.10;;
10711;SDS011;5407;51.234;6.804;2023-03-19T01:23:06;2.58;;;2.08;;
10711;SDS011;5407;51.234;6.804;2023-03-19T01:25:35;1.83;;;1.73;;
10711;SDS011;5407;51.234;6.804;2023-03-19T01:28:04;1.95;;;1.73;;
10711;SDS011;5407;51.234;6.804;2023-03-19T01:30:33;2.03;;;1.90;;
10711;SDS011;5407;51.234;6.804;2023-03-19T01:33:00;3.72;;;1.77;;
10711;SDS011;5407;51.234;6.804;2023-03-19T01:35:46;2.53;;;1.90;;
10711;SDS011;5407;51.234;6.804;2023-03-19T01:38:14;2.50;;;1.83;;
10711;SDS011;5407;51.234;6.804;2023-03-19T01:40:44;1.95;;;1.80;;
10711;SDS011;5407;51.234;6.804;2023-03-19T01:43:14;2.20;;;2.00;;
10711;SDS011;5407;51.234;6.804;2023-03-19T01:45:58;2.08;;;1.83;;
10711;SDS011;5407;51.234;6.804;2023-03-19T01:48:35;2.05;;;1.85;;
10711;SDS011;5407;51.234;6.804;2023-03-19T01:51:10;1.83;;;1.70;;
10711;SDS011;5407;51.234;6.804;2023-03-19T01:53:54;2.30;;;2.10;;
10711;SDS011;5407;51.234;6.804;2023-03-19T01:56:41;1.90;;;1.80;;
10711;SDS011;5407;51.234;6.804;2023-03-19T01:59:24;2.92;;;1.90;;
10711;SDS011;5407;51.234;6.804;2023-03-19T02:02:12;1.67;;;1.58;;
10711;SDS011;5407;51.234;6.804;2023-03-19T02:04:43;1.95;;;1.83;;
10711;SDS011;5407;51.234;6.804;2023-03-19T02:07:14;1.98;;;1.70;;
10711;SDS011;5407;51.234;6.804;2023-03-19T02:09:42;1.70;;;1.60;;
10711;SDS011;5407;51.234;6.804;2023-03-19T02:12:11;1.70;;;1.60;;
10711;SDS011;5407;51.234;6.804;2023-03-19T02:14:38;2.22;;;1.98;;
10711;SDS011;5407;51.234;6.804;2023-03-19T02:17:05;1.92;;;1.73;;
10711;SDS011;5407;51.234;6.804;2023-03-19T02:19:36;2.40;;;1.90;;
10711;SDS011;5407;51.234;6.804;2023-03-19T02:22:11;1.77;;;1.65;;
10711;SDS011;5407;51.234;6.804;2023-03-19T02:24:40;2.10;;;1.90;;
10711;SDS011;5407;51.234;6.804;2023-03-19T02:27:19;3.05;;;1.70;;
10711;SDS011;5407;51.234;6.804;2023-03-19T02:29:48;1.80;;;1.70;;
10711;SDS011;5407;51.234;6.804;2023-03-19T02:32:15;1.70;;;1.60;;
10711;SDS011;5407;51.234;6.804;2023-03-19T02:34:42;2.70;;;1.90;;
10711;SDS011;5407;51.234;6.804;2023-03-19T02:37:12;2.75;;;1.80;;
10711;SDS011;5407;51.234;6.804;2023-03-19T02:39:47;3.13;;;1.60;;
10711;SDS011;5407;51.234;6.804;2023-03-19T02:42:18;1.70;;;1.60;;
10711;SDS011;5407;51.234;6.804;2023-03-19T02:44:48;3.08;;;1.80;;
10711;SDS011;5407;51.234;6.804;2023-03-19T02:47:14;2.00;;;1.50;;
10711;SDS011;5407;51.234;6.804;2023-03-19T02:49:42;2.00;;;1.80;;
10711;SDS011;5407;51.234;6.804;2023-03-19T02:52:09;1.70;;;1.60;;
10711;SDS011;5407;51.234;6.804;2023-03-19T02:54:38;1.90;;;1.60;;
10711;SDS011;5407;51.234;6.804;2023-03-19T02:57:05;1.95;;;1.80;;
10711;SDS011;5407;51.234;6.804;2023-03-19T02:59:34;1.77;;;1.60;;
10711;SDS011;5407;51.234;6.804;2023-03-19T03:02:03;1.65;;;1.55;;
10711;SDS011;5407;51.234;6.804;2023-03-19T03:04:31;1.63;;;1.52;;
10711;SDS011;5407;51.234;6.804;2023-03-19T03:07:01;1.60;;;1.50;;
10711;SDS011;5407;51.234;6.804;2023-03-19T03:09:29;1.77;;;1.60;;
10711;SDS011;5407;51.234;6.804;2023-03-19T03:11:57;1.80;;;1.70;;
10711;SDS011;5407;51.234;6.804;2023-03-19T03:14:24;1.90;;;1.77;;
10711;SDS011;5407;51.234;6.804;2023-03-19T03:16:52;1.60;;;1.50;;
10711;SDS011;5407;51.234;6.804;2023-03-19T03:19:19;1.70;;;1.52;;
10711;SDS011;5407;51.234;6.804;2023-03-19T03:21:47;1.70;;;1.60;;
10711;SDS011;5407;51.234;6.804;2023-03-19T03:24:14;1.73;;;1.42;;
10711;SDS011;5407;51.234;6.804;2023-03-19T03:26:42;1.80;;;1.70;;
10711;SDS011;5407;51.234;6.804;2023-03-19T03:29:10;1.58;;;1.48;;
10711;SDS011;5407;51.234;6.804;2023-03-19T03:31:37;2.10;;;1.50;;
10711;SDS011;5407;51.234;6.804;2023-03-19T03:34:05;2.65;;;1.67;;
10711;SDS011;5407;51.234;6.804;2023-03-19T03:36:32;2.05;;;1.90;;
10711;SDS011;5407;51.234;6.804;2023-03-19T03:38:59;1.70;;;1.55;;
10711;SDS011;5407;51.234;6.804;2023-03-19T03:41:28;2.20;;;1.60;;
10711;SDS011;5407;51.234;6.804;2023-03-19T03:43:55;1.73;;;1.63;;
10711;SDS011;5407;51.234;6.804;2023-03-19T03:46:22;1.98;;;1.77;;
10711;SDS011;5407;51.234;6.804;2023-03-19T03:48:50;2.25;;;1.73;;
10711;SDS011;5407;51.234;6.804;2023-03-19T03:51:18;1.63;;;1.48;;
10711;SDS011;5407;51.234;6.804;2023-03-19T03:53:46;1.85;;;1.65;;
10711;SDS011;5407;51.234;6.804;2023-03-19T03:56:13;1.95;;;1.75;;
10711;SDS011;5407;51.234;6.804;2023-03-19T03:58:40;2.58;;;1.85;;
10711;SDS011;5407;51.234;6.804;2023-03-19T04:01:08;3.42;;;1.60;;
10711;SDS011;5407;51.234;6.804;2023-03-19T04:03:39;1.98;;;1.60;;
10711;SDS011;5407;51.234;6.804;2023-03-19T04:06:06;5.90;;;1.88;;
10711;SDS011;5407;51.234;6.804;2023-03-19T04:08:36;3.30;;;1.63;;
10711;SDS011;5407;51.234;6.804;2023-03-19T04:11:05;2.78;;;1.67;;
10711;SDS011;5407;51.234;6.804;2023-03-19T04:13:32;5.65;;;1.88;;
10711;SDS011;5407;51.234;6.804;2023-03-19T04:16:01;5.45;;;1.55;;
10711;SDS011;5407;51.234;6.804;2023-03-19T04:18:28;1.88;;;1.60;;
10711;SDS011;5407;51.234;6.804;2023-03-19T04:20:55;4.82;;;1.75;;
10711;SDS011;5407;51.234;6.804;2023-03-19T04:23:22;7.90;;;1.88;;
10711;SDS011;5407;51.234;6.804;2023-03-19T04:25:51;4.95;;;2.20;;
10711;SDS011;5407;51.234;6.804;2023-03-19T04:28:18;5.75;;;1.63;;
10711;SDS011;5407;51.234;6.804;2023-03-19T04:30:45;3.88;;;1.60;;
10711;SDS011;5407;51.234;6.804;2023-03-19T04:33:12;5.45;;;1.90;;
10711;SDS011;5407;51.234;6.804;2023-03-19T04:35:39;4.38;;;1.70;;
10711;SDS011;5407;51.234;6.804;2023-03-19T04:38:05;5.88;;;2.00;;
10711;SDS011;5407;51.234;6.804;2023-03-19T04:40:33;3.85;;;1.80;;
10711;SDS011;5407;51.234;6.804;2023-03-19T04:43:01;7.28;;;2.00;;
10711;SDS011;5407;51.234;6.804;2023-03-19T04:45:32;4.18;;;1.67;;
10711;SDS011;5407;51.234;6.804;2023-03-19T04:47:59;4.63;;;1.70;;
10711;SDS011;5407;51.234;6.804;2023-03-19T04:50:29;3.88;;;1.67;;
10711;SDS011;5407;51.234;6.804;2023-03-19T04:52:57;2.95;;;1.60;;
10711;SDS011;5407;51.234;6.804;2023-03-19T04:55:24;2.67;;;1.40;;
10711;SDS011;5407;51.234;6.804;2023-03-19T04:58:04;2.13;;;1.58;;
10711;SDS011;5407;51.234;6.804;2023-03-19T05:00:33;2.30;;;1.50;;
10711;SDS011;5407;51.234;6.804;2023-03-19T05:03:00;4.35;;;1.92;;
10711;SDS011;5407;51.234;6.804;2023-03-19T05:05:30;5.28;;;1.60;;
10711;SDS011;5407;51.234;6.804;2023-03-19T05:07:57;2.72;;;1.60;;
10711;SDS011;5407;51.234;6.804;2023-03-19T05:10:24;3.95;;;1.60;;
10711;SDS011;5407;51.234;6.804;2023-03-19T05:12:51;1.98;;;1.27;;
10711;SDS011;5407;51.234;6.804;2023-03-19T05:15:20;3.85;;;1.60;;
10711;SDS011;5407;51.234;6.804;2023-03-19T05:17:57;3.83;;;1.60;;
10711;SDS011;5407;51.234;6.804;2023-03-19T05:20:44;3.47;;;1.63;;
10711;SDS011;5407;51.234;6.804;2023-03-19T05:23:20;4.63;;;1.52;;
10711;SDS011;5407;51.234;6.804;2023-03-19T05:25:59;3.78;;;1.40;;
10711;SDS011;5407;51.234;6.804;2023-03-19T05:28:44;1.52;;;1.38;;
10711;SDS011;5407;51.234;6.804;2023-03-19T05:31:15;1.73;;;1.40;;
10711;SDS011;5407;51.234;6.804;2023-03-19T05:33:46;2.22;;;1.40;;
10711;SDS011;5407;51.234;6.804;2023-03-19T05:36:13;1.73;;;1.40;;
10711;SDS011;5407;51.234;6.804;2023-03-19T05:39:03;3.15;;;1.33;;
10711;SDS011;5407;51.234;6.804;2023-03-19T05:41:34;4.43;;;1.70;;
10711;SDS011;5407;51.234;6.804;2023-03-19T05:44:04;2.08;;;1.17;;
10711;SDS011;5407;51.234;6.804;2023-03-19T05:46:47;3.40;;;1.38;;
10711;SDS011;5407;51.234;6.804;2023-03-19T05:49:15;3.00;;;1.50;;
10711;SDS011;5407;51.234;6.804;2023-03-19T05:51:42;2.22;;;1.40;;
10711;SDS011;5407;51.234;6.804;2023-03-19T05:54:09;3.70;;;1.45;;
10711;SDS011;5407;51.234;6.804;2023-03-19T05:56:53;1.67;;;1.40;;
10711;SDS011;5407;51.234;6.804;2023-03-19T05:59:33;1.80;;;1.33;;
10711;SDS011;5407;51.234;6.804;2023-03-19T06:02:19;2.92;;;1.33;;
10711;SDS011;5407;51.234;6.804;2023-03-19T06:04:48;2.33;;;1.17;;
10711;SDS011;5407;51.234;6.804;2023-03-19T06:07:17;4.50;;;1.55;;
10711;SDS011;5407;51.234;6.804;2023-03-19T06:09:44;3.30;;;1.48;;
10711;SDS011;5407;51.234;6.804;2023-03-19T06:12:11;1.60;;;1.20;;
10711;SDS011;5407;51.234;6.804;2023-03-19T06:14:57;1.55;;;1.27;;
10711;SDS011;5407;51.234;6.804;2023-03-19T06:17:54;1.85;;;1.20;;
10711;SDS011;5407;51.234;6.804;2023-03-19T06:20:22;4.65;;;1.50;;
10711;SDS011;5407;51.234;6.804;2023-03-19T06:22:49;2.47;;;1.13;;
10711;SDS011;5407;51.234;6.804;2023-03-19T06:25:17;2.53;;;1.63;;
10711;SDS011;5407;51.234;6.804;2023-03-19T06:27:43;1.80;;;1.60;;
10711;SDS011;5407;51.234;6.804;2023-03-19T06:30:23;4.20;;;1.95;;
10711;SDS011;5407;51.234;6.804;2023-03-19T06:32:50;3.95;;;1.80;;
10711;SDS011;5407;51.234;6.804;2023-03-19T06:35:19;4.40;;;2.30;;
10711;SDS011;5407;51.234;6.804;2023-03-19T06:37:48;4.57;;;2.03;;
10711;SDS011;5407;51.234;6.804;2023-03-19T06:40:15;3.40;;;2.00;;
10711;SDS011;5407;51.234;6.804;2023-03-19T06:42:43;3.60;;;1.90;;
10711;SDS011;5407;51.234;6.804;2023-03-19T06:45:10;3.13;;;1.95;;
10711;SDS011;5407;51.234;6.804;2023-03-19T06:47:40;3.10;;;2.08;;
10711;SDS011;5407;51.234;6.804;2023-03-19T06:50:07;3.63;;;2.00;;
10711;SDS011;5407;51.234;6.804;2023-03-19T06:52:36;2.70;;;1.90;;
10711;SDS011;5407;51.234;6.804;2023-03-19T06:55:03;6.93;;;2.03;;
10711;SDS011;5407;51.234;6.804;2023-03-19T06:57:31;3.08;;;1.83;;
10711;SDS011;5407;51.234;6.804;2023-03-19T06:59:58;2.28;;;1.90;;
10711;SDS011;5407;51.234;6.804;2023-03-19T07:02:25;3.45;;;1.80;;
10711;SDS011;5407;51.234;6.804;2023-03-19T07:04:51;2.70;;;1.88;;
10711;SDS011;5407;51.234;6.804;2023-03-19T07:07:18;3.05;;;1.85;;
10711;SDS011;5407;51.234;6.804;2023-03-19T07:09:46;3.60;;;1.90;;
10711;SDS011;5407;51.234;6.804;2023-03-19T07:12:13;2.88;;;1.88;;
10711;SDS011;5407;51.234;6.804;2023-03-19T07:14:40;2.28;;;2.00;;
10711;SDS011;5407;51.234;6.804;2023-03-19T07:17:07;3.03;;;1.92;;
10711;SDS011;5407;51.234;6.804;2023-03-19T07:19:34;2.50;;;1.83;;
10711;SDS011;5407;51.234;6.804;2023-03-19T07:22:01;2.45;;;1.95;;
10711;SDS011;5407;51.234;6.804;2023-03-19T07:24:28;2.55;;;1.70;;
10711;SDS011;5407;51.234;6.804;2023-03-19T07:26:56;4.05;;;2.03;;
10711;SDS011;5407;51.234;6.804;2023-03-19T07:29:23;2.38;;;1.70;;
10711;SDS011;5407;51.234;6.804;2023-03-19T07:31:50;3.00;;;1.70;;
10711;SDS011;5407;51.234;6.804;2023-03-19T07:34:16;2.15;;;1.60;;
10711;SDS011;5407;51.234;6.804;2023-03-19T07:36:43;1.65;;;1.50;;
10711;SDS011;5407;51.234;6.804;2023-03-19T07:39:11;2.58;;;1.40;;
10711;SDS011;5407;51.234;6.804;2023-03-19T07:41:38;2.95;;;1.42;;
10711;SDS011;5407;51.234;6.804;2023-03-19T07:44:13;2.13;;;1.45;;
10711;SDS011;5407;51.234;6.804;2023-03-19T07:46:41;1.77;;;1.38;;
10711;SDS011;5407;51.234;6.804;2023-03-19T07:49:08;1.75;;;1.50;;
10711;SDS011;5407;51.234;6.804;2023-03-19T07:51:35;2.78;;;1.52;;
10711;SDS011;5407;51.234;6.804;2023-03-19T07:54:02;1.33;;;1.23;;
10711;SDS011;5407;51.234;6.804;2023-03-19T07:56:29;1.23;;;1.13;;
10711;SDS011;5407;51.234;6.804;2023-03-19T07:58:56;1.55;;;1.10;;
10711;SDS011;5407;51.234;6.804;2023-03-19T08:01:25;1.40;;;1.10;;
10711;SDS011;5407;51.234;6.804;2023-03-19T08:03:52;1.25;;;1.15;;
10711;SDS011;5407;51.234;6.804;2023-03-19T08:06:19;1.30;;;1.13;;
10711;SDS011;5407;51.234;6.804;2023-03-19T08:08:46;1.55;;;1.10;;
10711;SDS011;5407;51.234;6.804;2023-03-19T08:11:13;1.33;;;1.00;;
10711;SDS011;5407;51.234;6.804;2023-03-19T08:13:40;1.13;;;1.02;;
10711;SDS011;5407;51.234;6.804;2023-03-19T08:16:07;1.13;;;1.02;;
10711;SDS011;5407;51.234;6.804;2023-03-19T08:18:36;0.80;;;0.80;;
10711;SDS011;5407;51.234;6.804;2023-03-19T08:21:02;1.33;;;1.10;;
10711;SDS011;5407;51.234;6.804;2023-03-19T08:23:30;1.20;;;1.10;;
10711;SDS011;5407;51.234;6.804;2023-03-19T08:25:57;1.33;;;1.10;;
10711;SDS011;5407;51.234;6.804;2023-03-19T08:28:24;0.98;;;0.98;;
10711;SDS011;5407;51.234;6.804;2023-03-19T08:30:51;0.93;;;0.93;;
10711;SDS011;5407;51.234;6.804;2023-03-19T08:33:20;0.93;;;0.93;;
10711;SDS011;5407;51.234;6.804;2023-03-19T08:35:48;0.82;;;0.82;;
10711;SDS011;5407;51.234;6.804;2023-03-19T08:38:16;1.35;;;1.20;;
10711;SDS011;5407;51.234;6.804;2023-03-19T08:40:44;1.05;;;0.93;;
10711;SDS011;5407;51.234;6.804;2023-03-19T08:43:11;1.13;;;1.08;;
10711;SDS011;5407;51.234;6.804;2023-03-19T08:45:37;1.10;;;1.00;;
10711;SDS011;5407;51.234;6.804;2023-03-19T08:48:04;1.10;;;0.98;;
10711;SDS011;5407;51.234;6.804;2023-03-19T08:50:31;1.05;;;1.00;;
10711;SDS011;5407;51.234;6.804;2023-03-19T08:52:59;1.50;;;0.95;;
10711;SDS011;5407;51.234;6.804;2023-03-19T08:55:26;0.90;;;0.90;;
10711;SDS011;5407;51.234;6.804;2023-03-19T09:00:27;1.08;;;1.00;;
10711;SDS011;5407;51.234;6.804;2023-03-19T09:02:53;1.42;;;1.00;;
10711;SDS011;5407;51.234;6.804;2023-03-19T09:05:20;0.80;;;0.80;;
10711;SDS011;5407;51.234;6.804;2023-03-19T09:07:49;1.00;;;0.90;;
10711;SDS011;5407;51.234;6.804;2023-03-19T09:10:17;1.10;;;1.00;;
10711;SDS011;5407;51.234;6.804;2023-03-19T09:12:44;0.82;;;0.80;;
10711;SDS011;5407;51.234;6.804;2023-03-19T09:15:11;0.90;;;0.90;;
10711;SDS011;5407;51.234;6.804;2023-03-19T09:17:38;0.90;;;0.90;;
10711;SDS011;5407;51.234;6.804;2023-03-19T09:20:05;0.90;;;0.90;;
10711;SDS011;5407;51.234;6.804;2023-03-19T09:22:32;1.38;;;0.90;;
10711;SDS011;5407;51.234;6.804;2023-03-19T09:24:59;1.00;;;1.00;;
10711;SDS011;5407;51.234;6.804;2023-03-19T09:27:28;0.73;;;0.73;;
10711;SDS011;5407;51.234;6.804;2023-03-19T09:29:54;0.90;;;0.90;;
10711;SDS011;5407;51.234;6.804;2023-03-19T09:32:21;0.95;;;0.90;;
10711;SDS011;5407;51.234;6.804;2023-03-19T09:34:48;0.80;;;0.80;;
10711;SDS011;5407;51.234;6.804;2023-03-19T09:37:15;0.85;;;0.85;;
10711;SDS011;5407;51.234;6.804;2023-03-19T09:39:42;0.93;;;0.90;;
10711;SDS011;5407;51.234;6.804;2023-03-19T09:42:14;0.88;;;0.85;;
10711;SDS011;5407;51.234;6.804;2023-03-19T09:44:53;0.80;;;0.80;;
10711;SDS011;5407;51.234;6.804;2023-03-19T09:47:25;1.10;;;0.80;;
10711;SDS011;5407;51.234;6.804;2023-03-19T09:49:54;0.80;;;0.80;;
10711;SDS011;5407;51.234;6.804;2023-03-19T09:52:26;0.80;;;0.80;;
10711;SDS011;5407;51.234;6.804;2023-03-19T09:54:59;0.85;;;0.85;;
10711;SDS011;5407;51.234;6.804;2023-03-19T09:57:32;0.68;;;0.68;;
10711;SDS011;5407;51.234;6.804;2023-03-19T10:00:07;1.25;;;0.93;;
10711;SDS011;5407;51.234;6.804;2023-03-19T10:02:50;0.95;;;0.90;;
10711;SDS011;5407;51.234;6.804;2023-03-19T10:05:24;1.40;;;0.90;;
10711;SDS011;5407;51.234;6.804;2023-03-19T10:08:13;0.85;;;0.80;;
10711;SDS011;5407;51.234;6.804;2023-03-19T10:10:55;0.73;;;0.73;;
10711;SDS011;5407;51.234;6.804;2023-03-19T10:13:37;1.00;;;0.90;;
10711;SDS011;5407;51.234;6.804;2023-03-19T10:16:12;1.10;;;0.82;;
10711;SDS011;5407;51.234;6.804;2023-03-19T10:18:46;0.75;;;0.75;;
10711;SDS011;5407;51.234;6.804;2023-03-19T10:21:17;0.82;;;0.80;;
10711;SDS011;5407;51.234;6.804;2023-03-19T10:23:48;0.75;;;0.75;;
10711;SDS011;5407;51.234;6.804;2023-03-19T10:26:20;0.90;;;0.90;;
10711;SDS011;5407;51.234;6.804;2023-03-19T10:28:52;0.70;;;0.70;;
10711;SDS011;5407;51.234;6.804;2023-03-19T10:31:26;0.70;;;0.70;;
10711;SDS011;5407;51.234;6.804;2023-03-19T10:33:57;0.90;;;0.80;;
10711;SDS011;5407;51.234;6.804;2023-03-19T10:36:32;0.65;;;0.65;;
10711;SDS011;5407;51.234;6.804;2023-03-19T10:39:01;1.08;;;1.00;;
10711;SDS011;5407;51.234;6.804;2023-03-19T10:41:33;1.23;;;0.88;;
10711;SDS011;5407;51.234;6.804;2023-03-19T10:44:09;1.00;;;0.93;;
10711;SDS011;5407;51.234;6.804;2023-03-19T10:46:48;0.75;;;0.75;;
10711;SDS011;5407;51.234;6.804;2023-03-19T10:49:15;2.13;;;0.63;;
10711;SDS011;5407;51.234;6.804;2023-03-19T10:51:42;0.95;;;0.85;;
10711;SDS011;5407;51.234;6.804;2023-03-19T10:54:20;0.88;;;0.88;;
10711;SDS011;5407;51.234;6.804;2023-03-19T10:56:49;1.10;;;0.73;;
10711;SDS011;5407;51.234;6.804;2023-03-19T10:59:21;0.93;;;0.93;;
10711;SDS011;5407;51.234;6.804;2023-03-19T11:01:55;1.10;;;0.90;;
10711;SDS011;5407;51.234;6.804;2023-03-19T11:04:24;0.80;;;0.80;;
10711;SDS011;5407;51.234;6.804;2023-03-19T11:06:53;1.10;;;1.00;;
10711;SDS011;5407;51.234;6.804;2023-03-19T11:09:23;1.10;;;1.00;;
10711;SDS011;5407;51.234;6.804;2023-03-19T11:11:57;1.00;;;1.00;;
10711;SDS011;5407;51.234;6.804;2023-03-19T11:14:33;1.30;;;1.17;;
10711;SDS011;5407;51.234;6.804;2023-03-19T11:17:05;1.00;;;1.00;;
10711;SDS011;5407;51.234;6.804;2023-03-19T11:19:42;1.20;;;1.10;;
10711;SDS011;5407;51.234;6.804;2023-03-19T11:22:16;1.38;;;1.10;;
10711;SDS011;5407;51.234;6.804;2023-03-19T11:24:48;1.30;;;1.20;;
10711;SDS011;5407;51.234;6.804;2023-03-19T11:27:16;1.10;;;1.00;;
10711;SDS011;5407;51.234;6.804;2023-03-19T11:29:43;1.17;;;1.08;;
10711;SDS011;5407;51.234;6.804;2023-03-19T11:32:19;1.45;;;1.10;;
10711;SDS011;5407;51.234;6.804;2023-03-19T11:34:58;1.05;;;1.00;;
10711;SDS011;5407;51.234;6.804;2023-03-19T11:37:30;3.72;;;1.40;;
10711;SDS011;5407;51.234;6.804;2023-03-19T11:40:08;1.80;;;1.00;;
10711;SDS011;5407;51.234;6.804;2023-03-19T11:45:55;2.50;;;1.00;;
10711;SDS011;5407;51.234;6.804;2023-03-19T11:48:33;1.05;;;0.98;;
10711;SDS011;5407;51.234;6.804;2023-03-19T11:51:12;1.85;;;1.00;;
10711;SDS011;5407;51.234;6.804;2023-03-19T11:53:51;1.10;;;0.90;;
10711;SDS011;5407;51.234;6.804;2023-03-19T11:56:27;2.60;;;0.93;;
10711;SDS011;5407;51.234;6.804;2023-03-19T11:59:04;0.98;;;0.90;;
10711;SDS011;5407;51.234;6.804;2023-03-19T12:04:55;1.45;;;1.00;;
10711;SDS011;5407;51.234;6.804;2023-03-19T12:07:36;1.00;;;0.90;;
10711;SDS011;5407;51.234;6.804;2023-03-19T12:13:14;1.20;;;0.90;;
10711;SDS011;5407;51.234;6.804;2023-03-19T12:16:01;1.00;;;1.00;;
10711;SDS011;5407;51.234;6.804;2023-03-19T12:18:40;1.02;;;1.00;;
10711;SDS011;5407;51.234;6.804;2023-03-19T12:21:29;0.90;;;0.90;;
10711;SDS011;5407;51.234;6.804;2023-03-19T12:24:09;1.10;;;1.00;;
10711;SDS011;5407;51.234;6.804;2023-03-19T12:26:48;1.13;;;1.00;;
10711;SDS011;5407;51.234;6.804;2023-03-19T12:29:26;0.90;;;0.90;;
10711;SDS011;5407;51.234;6.804;2023-03-19T12:32:06;1.02;;;0.98;;
10711;SDS011;5407;51.234;6.804;2023-03-19T12:34:42;0.80;;;0.80;;
10711;SDS011;5407;51.234;6.804;2023-03-19T12:37:17;1.25;;;0.85;;
10711;SDS011;5407;51.234;6.804;2023-03-19T12:39:53;1.05;;;0.98;;
10711;SDS011;5407;51.234;6.804;2023-03-19T12:42:32;0.70;;;0.65;;
10711;SDS011;5407;51.234;6.804;2023-03-19T12:45:03;10.77;;;1.45;;
10711;SDS011;5407;51.234;6.804;2023-03-19T12:47:40;0.88;;;0.85;;
10711;SDS011;5407;51.234;6.804;2023-03-19T12:50:10;1.38;;;0.80;;
10711;SDS011;5407;51.234;6.804;2023-03-19T12:52:43;0.85;;;0.73;;
10711;SDS011;5407;51.234;6.804;2023-03-19T12:55:13;1.48;;;0.95;;
10711;SDS011;5407;51.234;6.804;2023-03-19T12:57:45;1.83;;;1.00;;
10711;SDS011;5407;51.234;6.804;2023-03-19T13:00:15;2.72;;;0.90;;
10711;SDS011;5407;51.234;6.804;2023-03-19T13:02:49;0.80;;;0.80;;
10711;SDS011;5407;51.234;6.804;2023-03-19T13:05:22;0.90;;;0.90;;
10711;SDS011;5407;51.234;6.804;2023-03-19T13:07:58;1.42;;;0.90;;
10711;SDS011;5407;51.234;6.804;2023-03-19T13:10:30;0.88;;;0.88;;
10711;SDS011;5407;51.234;6.804;2023-03-19T13:12:57;2.17;;;0.70;;
10711;SDS011;5407;51.234;6.804;2023-03-19T13:15:27;1.27;;;1.02;;
10711;SDS011;5407;51.234;6.804;2023-03-19T13:18:01;0.98;;;0.80;;
10711;SDS011;5407;51.234;6.804;2023-03-19T13:20:48;0.73;;;0.73;;
10711;SDS011;5407;51.234;6.804;2023-03-19T13:23:24;1.92;;;0.82;;
10711;SDS011;5407;51.234;6.804;2023-03-19T13:25:56;1.13;;;0.82;;
10711;SDS011;5407;51.234;6.804;2023-03-19T13:28:26;0.80;;;0.80;;
10711;SDS011;5407;51.234;6.804;2023-03-19T13:30:59;0.73;;;0.70;;
10711;SDS011;5407;51.234;6.804;2023-03-19T13:33:28;0.82;;;0.82;;
10711;SDS011;5407;51.234;6.804;2023-03-19T13:35:55;0.85;;;0.85;;
10711;SDS011;5407;51.234;6.804;2023-03-19T13:38:31;1.00;;;0.98;;
10711;SDS011;5407;51.234;6.804;2023-03-19T13:41:04;0.80;;;0.80;;
10711;SDS011;5407;51.234;6.804;2023-03-19T13:43:52;0.68;;;0.68;;
10711;SDS011;5407;51.234;6.804;2023-03-19T13:46:25;0.95;;;0.80;;
10711;SDS011;5407;51.234;6.804;2023-03-19T13:49:01;1.50;;;1.00;;
10711;SDS011;5407;51.234;6.804;2023-03-19T13:51:34;0.90;;;0.73;;
10711;SDS011;5407;51.234;6.804;2023-03-19T13:54:06;0.70;;;0.70;;
10711;SDS011;5407;51.234;6.804;2023-03-19T13:57:01;5.18;;;1.25;;
10711;SDS011;5407;51.234;6.804;2023-03-19T13:59:58;4.50;;;0.90;;
10711;SDS011;5407;51.234;6.804;2023-03-19T14:03:03;0.85;;;0.85;;
10711;SDS011;5407;51.234;6.804;2023-03-19T14:05:32;1.15;;;1.05;;
10711;SDS011;5407;51.234;6.804;2023-03-19T14:08:06;1.23;;;1.00;;
10711;SDS011;5407;51.234;6.804;2023-03-19T14:10:46;1.00;;;0.90;;
10711;SDS011;5407;51.234;6.804;2023-03-19T14:13:17;0.93;;;0.93;;
10711;SDS011;5407;51.234;6.804;2023-03-19T14:15:50;1.48;;;0.88;;
10711;SDS011;5407;51.234;6.804;2023-03-19T14:18:17;1.63;;;0.95;;
10711;SDS011;5407;51.234;6.804;2023-03-19T14:20:49;1.15;;;0.90;;
10711;SDS011;5407;51.234;6.804;2023-03-19T14:23:22;2.50;;;0.98;;
10711;SDS011;5407;51.234;6.804;2023-03-19T14:25:53;3.15;;;0.98;;
10711;SDS011;5407;51.234;6.804;2023-03-19T14:28:26;1.23;;;0.80;;
10711;SDS011;5407;51.234;6.804;2023-03-19T14:31:00;1.23;;;0.90;;
10711;SDS011;5407;51.234;6.804;2023-03-19T14:33:37;2.83;;;0.90;;
10711;SDS011;5407;51.234;6.804;2023-03-19T14:36:11;2.65;;;1.00;;
10711;SDS011;5407;51.234;6.804;2023-03-19T14:38:44;0.85;;;0.70;;
10711;SDS011;5407;51.234;6.804;2023-03-19T14:41:16;0.80;;;0.80;;
10711;SDS011;5407;51.234;6.804;2023-03-19T14:43:51;2.30;;;1.00;;
10711;SDS011;5407;51.234;6.804;2023-03-19T14:46:40;1.10;;;0.90;;
10711;SDS011;5407;51.234;6.804;2023-03-19T14:52:28;1.75;;;0.90;;
10711;SDS011;5407;51.234;6.804;2023-03-19T14:54:58;0.63;;;0.63;;
10711;SDS011;5407;51.234;6.804;2023-03-19T14:57:28;4.65;;;0.90;;
10711;SDS011;5407;51.234;6.804;2023-03-19T14:59:58;1.00;;;0.77;;
10711;SDS011;5407;51.234;6.804;2023-03-19T15:02:35;0.70;;;0.70;;
10711;SDS011;5407;51.234;6.804;2023-03-19T15:05:05;1.10;;;0.70;;
10711;SDS011;5407;51.234;6.804;2023-03-19T15:07:35;1.00;;;0.80;;
10711;SDS011;5407;51.234;6.804;2023-03-19T15:10:04;0.90;;;0.90;;
10711;SDS011;5407;51.234;6.804;2023-03-19T15:12:36;0.77;;;0.77;;
10711;SDS011;5407;51.234;6.804;2023-03-19T15:15:28;2.55;;;0.88;;
10711;SDS011;5407;51.234;6.804;2023-03-19T15:18:00;1.30;;;0.90;;
10711;SDS011;5407;51.234;6.804;2023-03-19T15:20:30;0.65;;;0.65;;
10711;SDS011;5407;51.234;6.804;2023-03-19T15:23:01;2.17;;;0.80;;
10711;SDS011;5407;51.234;6.804;2023-03-19T15:25:31;3.40;;;1.08;;
10711;SDS011;5407;51.234;6.804;2023-03-19T15:28:10;1.08;;;0.98;;
10711;SDS011;5407;51.234;6.804;2023-03-19T15:30:38;0.70;;;0.70;;
10711;SDS011;5407;51.234;6.804;2023-03-19T15:33:15;1.15;;;0.80;;
10711;SDS011;5407;51.234;6.804;2023-03-19T15:35:43;0.80;;;0.80;;
10711;SDS011;5407;51.234;6.804;2023-03-19T15:38:11;0.73;;;0.70;;
10711;SDS011;5407;51.234;6.804;2023-03-19T15:40:42;1.00;;;0.80;;